createdAt,value
2022-08-31T00:00:16.070Z,-25.8
2022-08-31T00:06:19.705Z,-25.7
2022-08-31T00:08:21.181Z,-25.9
2022-08-31T00:10:32.069Z,-25.9
2022-08-31T00:12:24.439Z,-25.6
2022-08-31T00:16:26.672Z,-25.7
2022-08-31T00:18:27.473Z,-25.8
2022-08-31T00:20:33.012Z,-25.9
2022-08-31T00:22:30.383Z,-25.7
2022-08-31T00:26:32.958Z,-25.9
2022-08-31T00:28:34.851Z,-25.7
2022-08-31T00:30:36.669Z,-25.8
2022-08-31T00:32:38.461Z,-25.9
2022-08-31T00:34:40.016Z,-25.9
2022-08-31T00:36:41.487Z,-25.9
2022-08-31T00:38:43.013Z,-25.7
2022-08-31T00:40:44.637Z,-25.8
2022-08-31T00:42:45.436Z,-25.9
2022-08-31T00:44:46.418Z,-25.7
2022-08-31T00:46:47.643Z,-25.8
2022-08-31T00:48:49.301Z,-25.9
2022-08-31T00:52:52.375Z,-25.6
2022-08-31T00:54:54.092Z,-25.5
2022-08-31T00:56:55.424Z,-25.9
2022-08-31T00:58:56.678Z,-25.8
2022-08-31T01:05:01.862Z,-25.6
2022-08-31T01:07:03.711Z,-25.7
2022-08-31T01:09:05.548Z,-25.8
2022-08-31T01:11:07.286Z,-26
2022-08-31T01:13:08.631Z,-25.8
2022-08-31T01:17:11.756Z,-25.9
2022-08-31T01:21:14.284Z,-25.7
2022-08-31T01:25:16.664Z,-25.8
2022-08-31T01:27:17.554Z,-25.7
2022-08-31T01:29:19.264Z,-25.7
2022-08-31T01:31:20.605Z,-25.7
2022-08-31T01:33:22.220Z,-25.5
2022-08-31T01:35:23.620Z,-25.7
2022-08-31T01:37:25.315Z,-26
2022-08-31T01:39:26.734Z,-25.8
2022-08-31T01:41:27.943Z,-25.8
2022-08-31T01:43:29.292Z,-25.9
2022-08-31T01:47:31.777Z,-25.7
2022-08-31T01:49:33.495Z,-25.7
2022-08-31T01:51:34.635Z,-25.8
2022-08-31T01:53:36.423Z,-25.6
2022-08-31T01:55:37.886Z,-25.8
2022-08-31T01:57:39.010Z,-25.7
2022-08-31T02:03:42.702Z,-25.6
2022-08-31T02:05:43.566Z,-25.8
2022-08-31T02:07:44.519Z,-25.9
2022-08-31T02:09:45.883Z,-25.6
2022-08-31T02:11:47.488Z,-25.7
2022-08-31T02:13:49.022Z,-25.9
2022-08-31T02:15:50.584Z,-25.9
2022-08-31T02:17:52.805Z,-26
2022-08-31T02:19:52.588Z,-25.9
2022-08-31T02:21:54.445Z,-25.7
2022-08-31T02:23:56.316Z,-25.9
2022-08-31T02:25:56.643Z,-25.7
2022-08-31T02:27:57.951Z,-25.6
2022-08-31T02:29:59.536Z,-25.8
2022-08-31T02:34:03.215Z,-25.9
2022-08-31T02:36:04.449Z,-25.7
2022-08-31T02:38:05.681Z,-25.9
2022-08-31T02:40:07.183Z,-26.1
2022-08-31T02:42:08.301Z,-25.7
2022-08-31T02:44:09.583Z,-25.7
2022-08-31T02:46:10.916Z,-25.8
2022-08-31T02:48:12.313Z,-25.8
2022-08-31T02:50:13.462Z,-25.8
2022-08-31T02:52:14.786Z,-25.7
2022-08-31T02:54:16.138Z,-25.7
2022-08-31T02:56:17.262Z,-25.7
2022-08-31T02:58:22.047Z,-25.8
2022-08-31T03:00:20.273Z,-25.7
2022-08-31T03:02:21.836Z,-25.6
2022-08-31T03:04:22.965Z,-25.8
2022-08-31T03:06:24.359Z,-25.7
2022-08-31T03:08:25.815Z,-25.6
2022-08-31T03:12:28.415Z,-25.5
2022-08-31T03:16:31.306Z,-26
2022-08-31T03:18:32.372Z,-25.8
2022-08-31T03:20:33.641Z,-25.8
2022-08-31T03:22:34.953Z,-25.6
2022-08-31T03:28:39.715Z,-25.9
2022-08-31T03:30:41.433Z,-25.7
2022-08-31T03:32:42.924Z,-26
2022-08-31T03:34:43.945Z,-25.7
2022-08-31T03:36:45.619Z,-25.8
2022-08-31T03:40:47.629Z,-25.7
2022-08-31T03:42:49.244Z,-25.8
2022-08-31T03:44:50.769Z,-25.8
2022-08-31T03:46:51.864Z,-26
2022-08-31T03:48:53.047Z,-25.8
2022-08-31T03:50:54.642Z,-25.8
2022-08-31T03:52:55.799Z,-25.9
2022-08-31T03:54:57.344Z,-25.9
2022-08-31T03:56:58.736Z,-25.7
2022-08-31T03:59:00.294Z,-25.7
2022-08-31T04:01:01.965Z,-25.9
2022-08-31T04:01:45.784Z,-25.5
2022-08-31T04:05:48.745Z,-25.4
2022-08-31T04:07:50.015Z,-25.8
2022-08-31T04:09:50.944Z,-25.7
2022-08-31T04:11:52.748Z,-25.8
2022-08-31T04:13:53.953Z,-25.8
2022-08-31T04:15:55.700Z,-25.8
2022-08-31T04:21:59.939Z,-25.9
2022-08-31T04:24:01.534Z,-25.9
2022-08-31T04:26:03.005Z,-25.6
2022-08-31T04:28:03.925Z,-25.8
2022-08-31T04:30:05.184Z,-25.9
2022-08-31T04:32:06.689Z,-25.9
2022-08-31T04:36:10.029Z,-25.9
2022-08-31T04:38:12.100Z,-25.9
2022-08-31T04:40:12.991Z,-26
2022-08-31T04:42:14.073Z,-26
2022-08-31T04:44:19.271Z,-25.8
2022-08-31T04:46:16.857Z,-26.1
2022-08-31T04:48:18.167Z,-25.8
2022-08-31T04:50:19.806Z,-25.9
2022-08-31T04:52:21.989Z,-25.9
2022-08-31T04:54:23.058Z,-25.8
2022-08-31T04:56:24.876Z,-25.7
2022-08-31T04:58:25.886Z,-25.9
2022-08-31T05:00:27.720Z,-25.6
2022-08-31T05:02:29.178Z,-25.8
2022-08-31T05:04:30.347Z,-25.9
2022-08-31T05:06:31.943Z,-25.9
2022-08-31T05:08:33.166Z,-25.7
2022-08-31T05:10:34.548Z,-25.8
2022-08-31T05:12:35.470Z,-25.9
2022-08-31T05:14:37.180Z,-25.9
2022-08-31T05:18:38.749Z,-26
2022-08-31T05:20:40.228Z,-25.9
2022-08-31T05:22:41.816Z,-25.9
2022-08-31T05:24:43.298Z,-25.8
2022-08-31T05:26:45.075Z,-25.7
2022-08-31T05:28:46.209Z,-25.7
2022-08-31T05:30:47.193Z,-25.8
2022-08-31T05:34:49.318Z,-25.9
2022-08-31T05:36:50.722Z,-26
2022-08-31T05:38:51.918Z,-25.8
2022-08-31T05:40:53.323Z,-25.9
2022-08-31T05:42:55.033Z,-25.6
2022-08-31T05:44:56.361Z,-25.9
2022-08-31T05:47:03.700Z,-26.2
2022-08-31T05:48:59.774Z,-25.9
2022-08-31T05:51:01.404Z,-25.7
2022-08-31T05:53:02.507Z,-25.9
2022-08-31T05:55:03.716Z,-25.8
2022-08-31T05:57:04.883Z,-25.9
2022-08-31T06:01:07.122Z,-25.9
2022-08-31T06:03:08.446Z,-26.1
2022-08-31T06:09:12.216Z,-26.2
2022-08-31T06:11:13.870Z,-25.7
2022-08-31T06:13:15.391Z,-26
2022-08-31T06:15:16.866Z,-25.9
2022-08-31T06:17:18.589Z,-26
2022-08-31T06:19:19.541Z,-25.9
2022-08-31T06:23:23.059Z,-20.7
2022-08-31T06:25:24.289Z,-19.4
2022-08-31T06:27:25.396Z,-16.9
2022-08-31T06:29:27.180Z,-14.3
2022-08-31T06:33:30.372Z,-11.5
2022-08-31T06:35:31.334Z,-9.7
2022-08-31T06:37:32.555Z,-8
2022-08-31T06:39:33.692Z,-7.2
2022-08-31T06:41:36.755Z,-5.6
2022-08-31T06:43:36.760Z,-6.9
2022-08-31T06:45:38.064Z,-4.69
2022-08-31T06:47:39.734Z,-4
2022-08-31T06:49:40.524Z,-1
2022-08-31T06:51:42.285Z,1
2022-08-31T06:53:44.117Z,2
2022-08-31T06:55:45.151Z,3.8
2022-08-31T06:57:46.754Z,6.7
2022-08-31T06:59:48.404Z,7.9
2022-08-31T07:01:49.835Z,6.2
2022-08-31T07:05:52.420Z,2.6
2022-08-31T07:07:53.403Z,4.19
2022-08-31T07:09:54.717Z,5.4
2022-08-31T07:11:56.453Z,5.8
2022-08-31T07:18:00.852Z,11.9
2022-08-31T07:20:02.049Z,13.9
2022-08-31T07:22:03.707Z,15.7
2022-08-31T07:24:05.511Z,16.1
2022-08-31T07:26:06.435Z,17.5
2022-08-31T07:28:07.909Z,21.2
2022-08-31T07:30:09.509Z,24.5
2022-08-31T07:32:10.564Z,27.1
2022-08-31T07:34:11.875Z,32.59
2022-08-31T07:36:13.172Z,35.2
2022-08-31T07:38:14.596Z,40.59
2022-08-31T07:40:15.508Z,46.9
2022-08-31T07:42:17.260Z,34.7
2022-08-31T07:44:18.101Z,75.9
2022-08-31T07:46:19.225Z,74.9
2022-08-31T07:48:20.004Z,74.4
2022-08-31T07:50:21.574Z,73.3
2022-08-31T07:52:22.618Z,73.69
2022-08-31T07:54:23.993Z,73.1
2022-08-31T07:56:25.069Z,72.3
2022-08-31T07:58:26.475Z,72
2022-08-31T08:00:27.897Z,71.19
2022-08-31T08:02:29.700Z,70.5
2022-08-31T08:04:30.946Z,69.69
2022-08-31T08:06:33.936Z,69.4
2022-08-31T08:08:34.106Z,68.5
2022-08-31T08:10:35.884Z,67.19
2022-08-31T08:12:37.133Z,11.4
2022-08-31T08:14:38.183Z,3
2022-08-31T08:16:39.417Z,25
2022-08-31T08:18:41.123Z,15.5
2022-08-31T08:20:42.457Z,17.2
2022-08-31T08:22:51.291Z,27.5
2022-08-31T08:24:45.376Z,65.1
2022-08-31T08:26:48.971Z,63.6
2022-08-31T08:28:48.111Z,62.3
2022-08-31T08:30:49.074Z,60.9
2022-08-31T08:32:50.656Z,59.7
2022-08-31T08:34:52.255Z,58.5
2022-08-31T08:36:53.716Z,57.3
2022-08-31T08:38:55.304Z,55
2022-08-31T08:40:56.219Z,53.7
2022-08-31T08:42:57.809Z,51.8
2022-08-31T08:44:59.170Z,48.7
2022-08-31T08:47:00.968Z,43.9
2022-08-31T08:49:03.482Z,39.09
2022-08-31T08:51:03.467Z,35.4
2022-08-31T08:53:05.254Z,34.59
2022-08-31T08:55:06.848Z,32.59
2022-08-31T08:57:08.031Z,31.2
2022-08-31T08:59:10.991Z,29.9
2022-08-31T09:01:09.991Z,27.3
2022-08-31T09:03:10.915Z,27.7
2022-08-31T09:05:12.418Z,25.4
2022-08-31T09:07:13.957Z,24.9
2022-08-31T09:09:15.403Z,23
2022-08-31T09:11:16.889Z,22.5
2022-08-31T09:13:18.037Z,22.5
2022-08-31T09:15:19.754Z,20.6
2022-08-31T09:17:21.522Z,18.5
2022-08-31T09:19:22.369Z,18.79
2022-08-31T09:21:23.876Z,17.2
2022-08-31T09:23:25.203Z,16.9
2022-08-31T09:25:26.929Z,15.5
2022-08-31T09:29:29.755Z,11.7
2022-08-31T09:31:31.518Z,11.7
2022-08-31T09:33:32.551Z,10.7
2022-08-31T09:35:33.994Z,10.8
2022-08-31T09:45:42.242Z,-25.8
2022-08-31T09:47:42.175Z,-25.8
2022-08-31T09:49:43.359Z,-25.8
2022-08-31T09:51:44.897Z,-25.9
2022-08-31T09:53:45.765Z,-25.5
2022-08-31T09:55:47.118Z,-25.6
2022-08-31T09:57:48.133Z,-25.8
2022-08-31T09:59:49.620Z,-25.5
2022-08-31T10:01:50.715Z,-25.5
2022-08-31T10:03:52.143Z,-25.7
2022-08-31T10:05:53.941Z,-25.6
2022-08-31T10:07:55.166Z,-25.6
2022-08-31T10:09:57.707Z,-25.7
2022-08-31T10:11:57.866Z,-26
2022-08-31T10:14:00.048Z,-25.6
2022-08-31T10:18:02.449Z,-25.9
2022-08-31T10:20:03.939Z,-25.7
2022-08-31T10:22:05.026Z,-25.6
2022-08-31T10:24:05.762Z,-25.9
2022-08-31T10:28:08.653Z,-25.8
2022-08-31T10:30:10.414Z,-25.6
2022-08-31T10:32:11.513Z,-25.6
2022-08-31T10:34:12.473Z,-25.4
2022-08-31T10:38:19.418Z,-25.6
2022-08-31T10:40:16.514Z,-25.7
2022-08-31T10:42:18.165Z,-25.6
2022-08-31T10:44:19.742Z,-25.6
2022-08-31T10:47:04.594Z,-25.7
2022-08-31T10:49:05.998Z,-25.6
2022-08-31T10:51:06.924Z,-25.7
2022-08-31T10:53:08.006Z,-25.6
2022-08-31T10:55:09.794Z,-25.9
2022-08-31T10:57:11.403Z,-25.5
2022-08-31T10:59:12.456Z,-25.5
2022-08-31T11:01:14.244Z,-25.8
2022-08-31T11:05:17.631Z,-25.7
2022-08-31T11:07:18.980Z,-25.6
2022-08-31T11:09:19.752Z,-25.5
2022-08-31T11:11:21.147Z,-25.5
2022-08-31T11:17:25.047Z,-25.8
2022-08-31T11:19:25.833Z,-25.5
2022-08-31T11:21:27.479Z,-25.6
2022-08-31T11:23:28.663Z,-25.7
2022-08-31T11:25:30.351Z,-25.8
2022-08-31T11:27:31.281Z,-25.5
2022-08-31T11:29:32.109Z,-25.9
2022-08-31T11:31:33.621Z,-25.6
2022-08-31T11:33:35.242Z,-25.7
2022-08-31T11:35:36.588Z,-25.7
2022-08-31T11:37:37.950Z,-26
2022-08-31T11:39:39.119Z,-25.6
2022-08-31T11:41:40.095Z,-25.3
2022-08-31T11:43:41.554Z,-25.5
2022-08-31T11:45:43.492Z,-25.7
2022-08-31T11:47:44.520Z,-25.6
2022-08-31T11:49:45.572Z,-25.9
2022-08-31T11:53:47.705Z,-25.6
2022-08-31T11:55:48.917Z,-25.6
2022-08-31T11:57:50.222Z,-25.9
2022-08-31T11:59:51.739Z,-25.6
2022-08-31T12:01:53.074Z,-26
2022-08-31T12:03:54.525Z,-25.6
2022-08-31T12:05:55.948Z,-25.7
2022-08-31T12:07:57.187Z,-25.8
2022-08-31T12:09:58.976Z,-25.8
2022-08-31T12:16:03.001Z,-25.3
2022-08-31T12:18:04.174Z,-25.7
2022-08-31T12:20:05.871Z,-25.7
2022-08-31T12:24:08.509Z,-25.7
2022-08-31T12:26:09.908Z,-25.8
2022-08-31T12:30:11.835Z,-25.8
2022-08-31T12:32:13.261Z,-25.9
2022-08-31T12:34:14.257Z,-25.5
2022-08-31T12:36:15.158Z,-25.6
2022-08-31T12:38:16.369Z,-25.8
2022-08-31T12:42:18.749Z,-25.6
2022-08-31T12:44:20.043Z,-25.6
2022-08-31T12:46:21.326Z,-25.6
2022-08-31T12:50:23.493Z,-25.5
2022-08-31T12:52:24.985Z,-25.9
2022-08-31T12:54:26.089Z,-25.6
2022-08-31T13:02:30.038Z,-25.7
2022-08-31T13:04:31.182Z,-25.7
2022-08-31T13:06:32.613Z,-25.9
2022-08-31T13:08:34.741Z,-25.6
2022-08-31T13:14:38.068Z,-25.6
2022-08-31T13:16:39.172Z,-25.6
2022-08-31T13:18:39.929Z,-25.6
2022-08-31T13:20:41.104Z,-25.4
2022-08-31T13:22:42.557Z,-25.7
2022-08-31T13:24:45.200Z,-25.5
2022-08-31T13:28:46.197Z,-25.9
2022-08-31T13:30:55.125Z,-25.8
2022-08-31T13:32:49.445Z,-25.7
2022-08-31T13:34:50.468Z,-25.5
2022-08-31T13:36:52.521Z,-25.7
2022-08-31T13:38:52.701Z,-25.6
2022-08-31T13:40:54.375Z,-25.8
2022-08-31T13:42:57.079Z,-25.5
2022-08-31T13:44:57.535Z,-25.7
2022-08-31T13:46:59.202Z,-25.8
2022-08-31T13:48:59.965Z,-25.5
2022-08-31T13:51:01.304Z,-25.6
2022-08-31T13:55:03.751Z,-25.3
2022-08-31T13:57:05.436Z,-25.8
2022-08-31T13:59:06.139Z,-25.6
2022-08-31T14:01:07.470Z,-25.7
2022-08-31T14:03:09.009Z,-25.5
2022-08-31T14:05:10.595Z,-25.8
2022-08-31T14:07:11.892Z,-25.7
2022-08-31T14:09:16.544Z,-25.7
2022-08-31T14:11:15.038Z,-25.6
2022-08-31T14:13:16.401Z,-25.3
2022-08-31T14:15:17.853Z,-25.4
2022-08-31T14:17:18.907Z,-25.8
2022-08-31T14:19:20.104Z,-25.6
2022-08-31T14:21:22.574Z,-25.7
2022-08-31T14:23:22.493Z,-25.6
2022-08-31T14:25:23.741Z,-25.7
2022-08-31T14:33:29.322Z,-25.8
2022-08-31T14:39:32.624Z,-25.7
2022-08-31T14:43:35.008Z,-25.6
2022-08-31T14:45:35.842Z,-25.5
2022-08-31T14:47:37.306Z,-25.9
2022-08-31T14:51:39.011Z,-25.8
2022-08-31T14:53:40.046Z,-25.7
2022-08-31T14:57:42.259Z,-25.7
2022-08-31T14:59:43.937Z,-25.7
2022-08-31T15:01:44.856Z,-25.8
2022-08-31T15:03:45.878Z,-25.6
2022-08-31T15:05:46.916Z,-25.8
2022-08-31T15:09:50.171Z,-25.8
2022-08-31T15:11:50.223Z,-25.8
2022-08-31T15:13:51.494Z,-4.4
2022-08-31T15:15:53.099Z,5.1
2022-08-31T15:19:56.261Z,58
2022-08-31T15:21:58.877Z,-1.4
2022-08-31T15:23:58.878Z,60.2
2022-08-31T15:26:00.203Z,-0.7
2022-08-31T15:28:01.839Z,54.5
2022-08-31T15:30:02.945Z,51.7
2022-08-31T15:32:04.713Z,2.7
2022-08-31T15:34:09.576Z,2.5
2022-08-31T15:36:07.285Z,48.4
2022-08-31T15:38:08.112Z,46
2022-08-31T15:40:09.488Z,44.3
2022-08-31T15:42:10.879Z,43.7
2022-08-31T15:46:13.994Z,42.3
2022-08-31T15:48:15.063Z,-6.6
2022-08-31T15:50:15.969Z,-13.3
2022-08-31T15:52:17.075Z,-17.2
2022-08-31T15:54:22.408Z,-21.2
2022-08-31T15:56:19.946Z,-25.2
2022-08-31T15:58:24.801Z,-24.8
2022-08-31T16:00:22.413Z,-25.2
2022-08-31T16:02:23.954Z,-25.4
2022-08-31T16:04:25.158Z,-20.4
2022-08-31T16:06:26.923Z,-25.8
2022-08-31T16:08:27.749Z,-22.6
2022-08-31T16:10:28.963Z,-20.4
2022-08-31T16:12:29.858Z,-17.4
2022-08-31T16:14:31.016Z,-19.9
2022-08-31T16:16:32.048Z,-17.9
2022-08-31T16:20:34.890Z,-14.7
2022-08-31T16:22:36.249Z,-21.4
2022-08-31T16:24:38.062Z,-16.29
2022-08-31T16:26:39.365Z,-9.8
2022-08-31T16:28:41.181Z,-9.6
2022-08-31T16:30:42.270Z,-11.7
2022-08-31T16:34:44.748Z,-21.7
2022-08-31T16:36:45.568Z,-23.1
2022-08-31T16:38:46.989Z,-26
2022-08-31T16:40:48.267Z,-25.8
2022-08-31T16:42:49.313Z,-25.7
2022-08-31T16:44:51.078Z,-25.5
2022-08-31T16:46:52.036Z,-25.6
2022-08-31T16:48:53.790Z,-25.8
2022-08-31T16:50:54.606Z,-25.9
2022-08-31T16:52:55.435Z,-25.8
2022-08-31T16:54:56.301Z,-25.8
2022-08-31T16:56:57.901Z,-25.9
2022-08-31T16:58:58.730Z,-26
2022-08-31T17:01:00.021Z,-25.8
2022-08-31T17:03:01.360Z,-25.6
2022-08-31T17:07:04.471Z,-25.8
2022-08-31T17:09:05.846Z,-25.7
2022-08-31T17:11:07.529Z,-25.8
2022-08-31T17:13:08.726Z,-25.8
2022-08-31T17:17:11.625Z,-25.9
2022-08-31T17:19:12.504Z,-25.8
2022-08-31T17:21:13.646Z,-25.9
2022-08-31T17:23:14.607Z,-25.4
2022-08-31T17:27:17.268Z,-25.7
2022-08-31T17:29:19.093Z,-25.8
2022-08-31T17:31:20.591Z,-26
2022-08-31T17:32:21.416Z,-25.5
2022-08-31T17:40:26.967Z,-25.7
2022-08-31T17:42:28.432Z,-25.6
2022-08-31T17:44:30.118Z,-25.6
2022-08-31T17:46:31.913Z,-25.6
2022-08-31T17:48:33.733Z,-25.6
2022-08-31T17:50:34.948Z,-25.7
2022-08-31T17:52:35.829Z,-25.8
2022-08-31T17:54:37.152Z,-26
2022-08-31T17:56:38.300Z,-25.8
2022-08-31T17:58:39.935Z,-25.8
2022-08-31T18:00:41.003Z,-25.6
2022-08-31T18:02:42.450Z,-25.8
2022-08-31T18:04:43.700Z,-25.7
2022-08-31T18:06:45.110Z,-25.6
2022-08-31T18:10:47.891Z,-25.8
2022-08-31T18:12:49.487Z,-25.6
2022-08-31T18:14:51.017Z,-26
2022-08-31T18:16:52.714Z,-25.6
2022-08-31T18:22:56.386Z,-25.7
2022-08-31T18:24:57.348Z,-25.8
2022-08-31T18:26:58.802Z,-25.6
2022-08-31T18:29:00.122Z,-25.8
2022-08-31T18:31:01.046Z,-25.7
2022-08-31T18:33:02.894Z,-25.6
2022-08-31T18:35:04.380Z,-25.7
2022-08-31T18:37:05.450Z,-25.7
2022-08-31T18:39:06.400Z,-25.7
2022-08-31T18:41:07.907Z,-25.5
2022-08-31T18:43:09.245Z,-25.8
2022-08-31T18:47:11.788Z,-25.7
2022-08-31T18:49:12.875Z,-25.8
2022-08-31T18:51:17.669Z,-25.7
2022-08-31T18:53:27.475Z,-25.7
2022-08-31T18:55:17.852Z,-25.7
2022-08-31T18:57:19.546Z,-25.7
2022-08-31T18:59:21.419Z,-25.6
2022-08-31T19:01:22.804Z,-25.6
2022-08-31T19:03:23.587Z,-25.8
2022-08-31T19:05:24.498Z,-26
2022-08-31T19:07:25.451Z,-26.1
2022-08-31T19:09:27.014Z,-25.8
2022-08-31T19:11:28.223Z,-26
2022-08-31T19:13:29.128Z,-25.9
2022-08-31T19:15:35.352Z,-25.8
2022-08-31T19:21:33.910Z,-25.8
2022-08-31T19:23:35.135Z,-26
2022-08-31T19:25:36.454Z,-25.7
2022-08-31T19:27:37.764Z,-25.6
2022-08-31T19:29:38.682Z,-26
2022-08-31T19:33:42.054Z,-25.6
2022-08-31T19:35:43.124Z,-25.7
2022-08-31T19:37:44.659Z,-25.5
2022-08-31T19:39:45.984Z,-25.7
2022-08-31T19:41:50.046Z,-25.8
2022-08-31T19:43:55.942Z,-25.7
2022-08-31T19:47:51.542Z,-25.8
2022-08-31T19:49:52.915Z,-25.8
2022-08-31T19:51:54.415Z,-25.6
2022-08-31T19:55:57.509Z,-25.8
2022-08-31T19:57:58.442Z,-25.9
2022-08-31T20:02:01.890Z,-25.9
2022-08-31T20:04:03.501Z,-25.8
2022-08-31T20:06:05.279Z,-25.8
2022-08-31T20:08:06.233Z,-25.8
2022-08-31T20:10:07.431Z,-25.6
2022-08-31T20:12:09.099Z,-25.8
2022-08-31T20:16:11.960Z,-25.6
2022-08-31T20:18:13.422Z,-25.9
2022-08-31T20:20:14.828Z,-25.7
2022-08-31T20:22:16.350Z,-26
2022-08-31T20:24:17.676Z,-25.5
2022-08-31T20:26:18.762Z,-25.9
2022-08-31T20:28:19.656Z,-25.9
2022-08-31T20:30:20.986Z,-25.8
2022-08-31T20:32:22.782Z,-25.9
2022-08-31T20:34:23.793Z,-25.6
2022-08-31T20:36:25.574Z,-26
2022-08-31T20:38:27.109Z,-25.8
2022-08-31T20:40:28.618Z,-25.8
2022-08-31T20:42:29.780Z,-26
2022-08-31T20:46:33.208Z,-25.9
2022-08-31T20:48:34.809Z,-26
2022-08-31T20:50:35.940Z,-25.6
2022-08-31T20:52:37.698Z,-25.5
2022-08-31T20:54:39.002Z,-25.7
2022-08-31T20:56:39.922Z,-25.7
2022-08-31T21:00:43.241Z,-25.6
2022-08-31T21:02:44.378Z,-25.9
2022-08-31T21:04:45.626Z,-25.7
2022-08-31T21:06:47.491Z,-25.7
2022-08-31T21:08:50.655Z,-25.8
2022-08-31T21:10:50.092Z,-25.7
2022-08-31T21:12:53.205Z,-26
2022-08-31T21:14:52.905Z,-25.9
2022-08-31T21:16:53.824Z,-25.8
2022-08-31T21:18:55.222Z,-25.7
2022-08-31T21:22:57.711Z,-25.9
2022-08-31T21:24:59.600Z,-25.6
2022-08-31T21:27:00.648Z,-25.6
2022-08-31T21:29:02.219Z,-25.9
2022-08-31T21:33:04.905Z,-26
2022-08-31T21:35:06.435Z,-25.8
2022-08-31T21:37:07.859Z,-25.8
2022-08-31T21:39:09.680Z,-25.8
2022-08-31T21:45:13.649Z,-25.7
2022-08-31T21:47:14.794Z,-25.8
2022-08-31T21:49:16.436Z,-25.6
2022-08-31T21:51:17.736Z,-25.9
2022-08-31T21:53:19.074Z,-26
2022-08-31T21:55:19.921Z,-25.7
2022-08-31T21:59:23.013Z,-25.9
2022-08-31T22:01:24.844Z,-26
2022-08-31T22:03:25.977Z,-26.1
2022-08-31T22:05:27.528Z,-25.9
2022-08-31T22:11:31.666Z,-25.9
2022-08-31T22:13:32.916Z,-25.9
2022-08-31T22:15:34.794Z,-25.7
2022-08-31T22:17:56.072Z,-25.9
2022-08-31T22:19:37.796Z,-25.9
2022-08-31T22:25:41.082Z,-25.8
2022-08-31T22:27:42.278Z,-25.6
2022-08-31T22:29:43.649Z,-25.9
2022-08-31T22:31:44.940Z,-26.1
2022-08-31T22:33:47.321Z,-26.1
2022-08-31T22:35:47.567Z,-25.9
2022-08-31T22:37:49.382Z,-25.9
2022-08-31T22:39:50.811Z,-26
2022-08-31T22:41:51.818Z,-25.9
2022-08-31T22:43:53.388Z,-26
2022-08-31T22:45:54.396Z,-26.1
2022-08-31T22:47:56.145Z,-26.1
2022-08-31T22:49:57.957Z,-25.9
2022-08-31T22:51:59.666Z,-26.5
2022-08-31T22:54:01.276Z,-26.4
2022-08-31T22:58:04.544Z,-25.7
2022-08-31T23:00:05.573Z,-26.2
2022-08-31T23:02:07.161Z,-26.3
2022-08-31T23:04:08.702Z,-26.3
2022-08-31T23:10:13.427Z,-26.2
2022-08-31T23:12:14.807Z,-26.3
2022-08-31T23:16:17.331Z,-26.1
2022-08-31T23:18:18.894Z,-26
2022-08-31T23:20:20.639Z,-26.1
2022-08-31T23:22:22.009Z,-25.9
2022-08-31T23:24:23.214Z,-26.1
2022-08-31T23:26:24.459Z,-25.8
2022-08-31T23:28:25.975Z,-26
2022-08-31T23:30:27.221Z,-26.1
2022-08-31T23:32:28.315Z,-25.6
2022-08-31T23:34:29.246Z,-25.9
2022-08-31T23:40:33.445Z,-26.1
2022-08-31T23:42:35.051Z,-25.9
2022-08-31T23:44:36.182Z,-25.9
2022-08-31T23:46:37.418Z,-26
2022-08-31T23:48:38.640Z,-25.5
2022-08-31T23:50:39.657Z,-26.1
2022-08-31T23:52:41.102Z,-26.1
2022-08-31T23:54:42.457Z,-26
2022-08-31T23:56:44.341Z,-26.2
2022-08-31T23:58:46.313Z,-26.3
